createdAt,value
2018-08-04T00:00:11.109Z,99302.50
2018-08-04T00:02:40.564Z,99295.29
2018-08-04T00:05:10.954Z,99295.97
2018-08-04T00:07:40.564Z,99297.31
2018-08-04T00:10:16.631Z,99296.84
2018-08-04T00:12:47.485Z,99292.61
2018-08-04T00:15:17.068Z,99296.06
2018-08-04T00:17:47.328Z,99288.46
2018-08-04T00:20:20.322Z,99285.33
2018-08-04T00:22:49.717Z,99288.42
2018-08-04T00:25:19.153Z,99285.73
2018-08-04T00:27:49.204Z,99285.39
2018-08-04T00:30:18.711Z,99283.37
2018-08-04T00:32:48.184Z,99279.96
2018-08-04T00:35:17.624Z,99281.65
2018-08-04T00:37:47.066Z,99282.99
2018-08-04T00:40:16.472Z,99283.56
2018-08-04T00:42:46.045Z,99279.92
2018-08-04T00:45:16.145Z,99279.41
2018-08-04T00:47:45.860Z,99278.20
2018-08-04T00:50:15.480Z,99287.42
2018-08-04T00:52:44.940Z,99282.66
2018-08-04T00:55:14.479Z,99286.63
2018-08-04T00:57:43.956Z,99285.61
2018-08-04T01:00:13.504Z,99280.83
2018-08-04T01:02:42.914Z,99283.13
2018-08-04T01:05:12.410Z,99281.52
2018-08-04T01:07:41.804Z,99283.86
2018-08-04T01:10:11.236Z,99278.42
2018-08-04T01:12:40.678Z,99275.45
2018-08-04T01:15:10.193Z,98935.08
2018-08-04T01:17:39.648Z,99245.52
2018-08-04T01:20:09.051Z,99178.84
2018-08-04T01:22:38.505Z,99282.92
2018-08-04T01:25:08.463Z,99117.20
2018-08-04T01:27:37.933Z,99275.14
2018-08-04T01:30:07.473Z,99266.64
2018-08-04T01:32:36.975Z,99266.46
2018-08-04T01:35:06.452Z,99271.55
2018-08-04T01:37:36.061Z,99262.95
2018-08-04T01:40:06.499Z,99265.44
2018-08-04T01:42:35.957Z,99263.70
2018-08-04T01:45:06.086Z,99260.81
2018-08-04T01:47:36.975Z,99257.66
2018-08-04T01:50:06.758Z,99128.29
2018-08-04T01:52:36.204Z,99255.03
2018-08-04T01:55:06.327Z,99254.87
2018-08-04T01:57:35.839Z,99260.28
2018-08-04T02:00:05.758Z,99257.50
2018-08-04T02:02:35.136Z,99266.83
2018-08-04T02:05:05.457Z,99255.40
2018-08-04T02:07:34.900Z,99255.40
2018-08-04T02:10:05.153Z,99252.98
2018-08-04T02:12:34.545Z,99256.43
2018-08-04T02:15:04.202Z,99256.16
2018-08-04T02:17:33.568Z,99250.99
2018-08-04T02:20:03.291Z,99253.75
2018-08-04T02:22:32.701Z,99259.84
2018-08-04T02:25:02.092Z,99262.73
2018-08-04T02:27:31.578Z,99263.28
2018-08-04T02:30:01.041Z,99260.69
2018-08-04T02:32:30.459Z,99242.27
2018-08-04T02:34:59.803Z,99262.59
2018-08-04T02:37:29.233Z,99260.70
2018-08-04T02:39:58.653Z,99261.70
2018-08-04T02:42:28.851Z,99258.93
2018-08-04T02:44:58.266Z,99264.23
2018-08-04T02:47:28.189Z,99261.19
2018-08-04T02:49:57.629Z,99257.59
2018-08-04T02:52:28.060Z,99258.52
2018-08-04T02:54:57.470Z,99256.18
2018-08-04T02:57:26.928Z,99257.59
2018-08-04T02:59:56.373Z,99260.49
2018-08-04T03:02:25.756Z,99262.41
2018-08-04T03:04:55.192Z,99264.02
2018-08-04T03:07:24.604Z,99270.73
2018-08-04T03:09:53.988Z,99269.48
2018-08-04T03:12:24.613Z,99262.25
2018-08-04T03:14:54.468Z,99255.42
2018-08-04T03:17:23.933Z,99264.30
2018-08-04T03:19:53.297Z,99265.22
2018-08-04T03:22:22.813Z,99272.86
2018-08-04T03:24:52.291Z,99271.66
2018-08-04T03:27:23.842Z,99267.11
2018-08-04T03:29:53.269Z,99263.61
2018-08-04T03:32:22.718Z,99256.90
2018-08-04T03:34:52.502Z,99266.16
2018-08-04T03:37:21.925Z,99266.28
2018-08-04T03:39:51.333Z,99271.78
2018-08-04T03:42:22.689Z,99271.14
2018-08-04T03:44:52.256Z,99271.52
2018-08-04T03:47:22.066Z,99258.58
2018-08-04T03:49:51.510Z,99277.71
2018-08-04T03:52:21.047Z,99281.95
2018-08-04T03:54:50.558Z,99279.92
2018-08-04T03:57:19.951Z,99276.08
2018-08-04T03:59:49.422Z,99277.93
2018-08-04T04:02:19.069Z,99277.07
2018-08-04T04:04:48.628Z,99279.28
2018-08-04T04:07:18.026Z,99282.09
2018-08-04T04:09:47.589Z,99282.65
2018-08-04T04:12:17.016Z,99281.52
2018-08-04T04:14:47.213Z,99290.73
2018-08-04T04:17:16.666Z,99294.80
2018-08-04T04:19:46.223Z,99298.42
2018-08-04T04:22:15.649Z,99301.80
2018-08-04T04:24:45.054Z,99296.30
2018-08-04T04:27:14.457Z,99299.19
2018-08-04T04:29:43.901Z,99304.64
2018-08-04T04:32:13.988Z,99310.27
2018-08-04T04:34:43.674Z,99303.62
2018-08-04T04:37:13.076Z,99305.25
2018-08-04T04:39:42.456Z,99305.20
2018-08-04T04:42:12.017Z,99305.23
2018-08-04T04:44:41.408Z,99311.82
2018-08-04T04:47:11.077Z,99313.66
2018-08-04T04:49:40.579Z,99312.45
2018-08-04T04:52:10.046Z,99315.66
2018-08-04T04:54:39.904Z,99312.79
2018-08-04T04:57:09.563Z,99315.20
2018-08-04T04:59:39.656Z,99314.27
2018-08-04T05:02:09.100Z,99315.02
2018-08-04T05:04:38.737Z,99324.97
2018-08-04T05:07:08.129Z,99319.94
2018-08-04T05:09:37.563Z,99329.00
2018-08-04T05:12:07.313Z,99324.34
2018-08-04T05:14:36.693Z,99323.77
2018-08-04T05:17:06.188Z,99314.33
2018-08-04T05:19:36.035Z,99330.70
2018-08-04T05:22:05.540Z,99326.94
2018-08-04T05:24:35.086Z,99332.27
2018-08-04T05:27:04.531Z,99333.55
2018-08-04T05:29:33.944Z,99328.11
2018-08-04T05:32:03.534Z,99328.63
2018-08-04T05:34:33.118Z,99331.80
2018-08-04T05:37:03.369Z,99327.28
2018-08-04T05:39:32.795Z,99324.13
2018-08-04T05:42:02.221Z,99323.99
2018-08-04T05:44:32.174Z,99332.89
2018-08-04T05:47:02.380Z,99332.41
2018-08-04T05:49:31.788Z,99337.18
2018-08-04T05:52:01.508Z,99335.84
2018-08-04T05:54:30.935Z,99335.20
2018-08-04T05:57:00.375Z,99333.26
2018-08-04T05:59:29.844Z,99333.60
2018-08-04T06:01:59.337Z,99341.27
2018-08-04T06:04:28.732Z,99335.50
2018-08-04T06:06:58.685Z,99339.05
2018-08-04T06:09:28.104Z,99336.03
2018-08-04T06:11:57.512Z,99337.98
2018-08-04T06:14:27.006Z,99337.14
2018-08-04T06:16:56.666Z,99331.95
2018-08-04T06:19:26.192Z,99327.72
2018-08-04T06:21:56.008Z,99327.77
2018-08-04T06:24:25.742Z,99331.64
2018-08-04T06:26:55.160Z,99333.23
2018-08-04T06:29:24.561Z,99329.83
2018-08-04T06:31:54.002Z,99333.23
2018-08-04T06:34:23.632Z,99328.72
2018-08-04T06:36:53.161Z,99334.16
2018-08-04T06:39:22.699Z,99326.59
2018-08-04T06:41:52.664Z,99328.28
2018-08-04T06:44:22.338Z,99318.71
2018-08-04T06:46:51.752Z,99316.41
2018-08-04T06:49:21.978Z,99323.45
2018-08-04T06:51:51.425Z,99318.14
2018-08-04T06:54:20.879Z,99319.75
2018-08-04T06:56:50.539Z,99315.27
2018-08-04T06:59:20.923Z,99315.67
2018-08-04T07:01:50.833Z,99321.80
2018-08-04T07:04:20.873Z,99320.27
2018-08-04T07:06:50.838Z,99316.58
2018-08-04T07:09:20.242Z,99324.20
2018-08-04T07:11:49.738Z,99319.39
2018-08-04T07:14:19.245Z,99319.39
2018-08-04T07:16:48.631Z,99317.40
2018-08-04T07:19:18.330Z,99313.05
2018-08-04T07:21:47.767Z,99309.25
2018-08-04T07:24:17.438Z,99317.88
2018-08-04T07:26:46.893Z,99319.75
2018-08-04T07:29:16.371Z,99315.22
2018-08-04T07:31:45.976Z,99318.08
2018-08-04T07:34:15.444Z,99316.92
2018-08-04T07:36:45.093Z,99313.72
2018-08-04T07:39:14.605Z,99317.94
2018-08-04T07:41:44.035Z,99321.01
2018-08-04T07:44:13.504Z,99323.34
2018-08-04T07:46:43.317Z,99318.47
2018-08-04T07:49:12.736Z,99315.58
2018-08-04T07:51:42.335Z,99312.39
2018-08-04T07:54:11.751Z,99323.01
2018-08-04T07:56:41.140Z,99318.26
2018-08-04T07:59:10.644Z,99312.64
2018-08-04T08:01:41.014Z,99315.13
2018-08-04T08:04:10.544Z,99319.83
2018-08-04T08:06:39.958Z,99311.45
2018-08-04T08:09:09.800Z,99313.49
2018-08-04T08:11:39.220Z,99308.02
2018-08-04T08:14:08.815Z,99306.38
2018-08-04T08:16:38.773Z,99309.10
2018-08-04T08:19:08.614Z,99302.47
2018-08-04T08:21:38.045Z,99296.67
2018-08-04T08:24:07.603Z,99301.13
2018-08-04T08:26:37.713Z,99295.13
2018-08-04T08:29:07.422Z,99298.77
2018-08-04T08:31:40.400Z,99297.68
2018-08-04T08:34:09.954Z,99298.69
2018-08-04T08:36:39.669Z,99285.06
2018-08-04T08:39:09.960Z,99286.20
2018-08-04T08:41:39.704Z,99287.42
2018-08-04T08:44:09.477Z,99287.28
2018-08-04T08:46:38.875Z,99278.26
2018-08-04T08:49:08.335Z,99280.08
2018-08-04T08:51:37.742Z,99283.11
2018-08-04T08:54:07.302Z,99274.95
2018-08-04T08:56:36.816Z,99279.88
2018-08-04T08:59:07.300Z,99282.63
2018-08-04T09:01:36.748Z,99278.34
2018-08-04T09:04:06.740Z,99282.94
2018-08-04T09:06:36.149Z,99276.20
2018-08-04T09:09:08.148Z,99276.97
2018-08-04T09:11:37.655Z,99284.14
2018-08-04T09:14:07.696Z,99275.98
2018-08-04T09:16:37.540Z,99277.20
2018-08-04T09:19:06.981Z,99270.42
2018-08-04T09:21:37.479Z,99267.58
2018-08-04T09:24:06.990Z,99275.22
2018-08-04T09:26:36.492Z,99274.11
2018-08-04T09:29:08.074Z,99267.27
2018-08-04T09:31:38.106Z,99270.50
2018-08-04T09:34:07.533Z,99266.77
2018-08-04T09:36:37.230Z,99270.94
2018-08-04T09:39:09.333Z,99274.48
2018-08-04T09:41:39.277Z,99269.16
2018-08-04T09:44:08.749Z,99269.37
2018-08-04T09:46:39.273Z,99275.10
2018-08-04T09:49:08.741Z,99273.70
2018-08-04T09:51:38.280Z,99266.77
2018-08-04T09:54:08.062Z,99273.23
2018-08-04T09:56:37.485Z,99267.33
2018-08-04T09:59:06.976Z,99270.13
2018-08-04T10:01:38.150Z,99265.23
2018-08-04T10:04:08.123Z,99261.25
2018-08-04T10:06:37.512Z,99259.93
2018-08-04T10:09:08.916Z,99268.45
2018-08-04T10:11:38.804Z,99267.34
2018-08-04T10:14:08.208Z,99267.13
2018-08-04T10:16:37.996Z,99264.22
2018-08-04T10:19:07.422Z,99257.97
2018-08-04T10:21:36.904Z,99256.52
2018-08-04T10:24:07.573Z,99256.38
2018-08-04T10:26:37.439Z,99252.08
2018-08-04T10:29:07.430Z,99254.78
2018-08-04T10:31:36.806Z,99259.81
2018-08-04T10:34:06.507Z,99254.64
2018-08-04T10:36:36.258Z,99253.56
2018-08-04T10:39:08.084Z,99257.22
2018-08-04T10:41:37.518Z,99256.51
2018-08-04T10:44:07.376Z,99249.96
2018-08-04T10:46:36.942Z,99250.92
2018-08-04T10:49:06.477Z,99245.67
2018-08-04T10:51:36.419Z,99247.97
2018-08-04T10:54:06.486Z,99242.52
2018-08-04T10:56:35.950Z,99244.20
2018-08-04T10:59:05.430Z,99244.28
2018-08-04T11:01:35.037Z,99243.53
2018-08-04T11:04:04.610Z,99240.72
2018-08-04T11:06:34.026Z,99237.18
2018-08-04T11:09:04.032Z,99235.81
2018-08-04T11:11:33.388Z,99229.70
2018-08-04T11:14:03.148Z,99227.25
2018-08-04T11:16:32.517Z,99228.88
2018-08-04T11:19:01.901Z,99222.31
2018-08-04T11:21:31.601Z,99223.17
2018-08-04T11:24:01.042Z,99225.11
2018-08-04T11:26:30.912Z,99226.48
2018-08-04T11:29:00.327Z,99225.94
2018-08-04T11:31:29.750Z,99221.48
2018-08-04T11:33:59.477Z,99227.34
2018-08-04T11:36:28.869Z,99223.60
2018-08-04T11:38:58.265Z,99220.72
2018-08-04T11:41:27.625Z,99212.23
2018-08-04T11:43:57.116Z,99213.06
2018-08-04T11:46:26.527Z,99204.91
2018-08-04T11:48:55.992Z,99201.06
2018-08-04T11:51:25.407Z,99196.27
2018-08-04T11:53:54.833Z,99197.48
2018-08-04T11:56:24.398Z,99190.28
2018-08-04T11:58:53.876Z,99186.83
2018-08-04T12:01:23.612Z,99187.78
2018-08-04T12:03:53.254Z,99191.86
2018-08-04T12:06:22.516Z,99184.31
2018-08-04T12:08:51.959Z,99177.47
2018-08-04T12:11:21.328Z,99166.97
2018-08-04T12:13:50.868Z,99168.46
2018-08-04T12:16:20.327Z,99161.53
2018-08-04T12:18:49.786Z,99163.59
2018-08-04T12:21:19.299Z,99164.33
2018-08-04T12:23:48.720Z,99148.94
2018-08-04T12:26:18.485Z,99165.56
2018-08-04T12:28:47.892Z,99166.54
2018-08-04T12:31:17.627Z,99157.80
2018-08-04T12:33:47.037Z,99156.80
2018-08-04T12:36:16.523Z,99151.81
2018-08-04T12:38:46.287Z,99143.33
2018-08-04T12:41:15.709Z,99141.54
2018-08-04T12:43:45.164Z,99139.57
2018-08-04T12:46:14.737Z,99138.44
2018-08-04T12:48:44.157Z,99139.95
2018-08-04T12:51:13.556Z,99133.71
2018-08-04T12:53:43.213Z,99133.75
2018-08-04T12:56:12.764Z,99129.80
2018-08-04T12:58:42.254Z,99135.72
2018-08-04T13:01:11.735Z,99130.03
2018-08-04T13:03:41.948Z,99129.71
2018-08-04T13:06:11.352Z,99138.66
2018-08-04T13:08:40.832Z,99133.23
2018-08-04T13:11:10.368Z,99130.70
2018-08-04T13:13:39.981Z,99134.42
2018-08-04T13:16:09.412Z,99125.48
2018-08-04T13:18:38.825Z,99128.56
2018-08-04T13:21:08.223Z,99121.97
2018-08-04T13:23:37.708Z,99117.30
2018-08-04T13:26:07.338Z,99118.89
2018-08-04T13:28:36.707Z,99116.16
2018-08-04T13:31:06.253Z,99117.35
2018-08-04T13:33:35.713Z,99120.33
2018-08-04T13:36:05.179Z,99109.09
2018-08-04T13:38:35.480Z,99115.86
2018-08-04T13:41:05.325Z,99116.38
2018-08-04T13:43:35.066Z,99111.44
2018-08-04T13:46:04.735Z,99110.54
2018-08-04T13:48:34.217Z,99113.73
2018-08-04T13:51:03.735Z,99105.84
2018-08-04T13:53:33.267Z,99108.19
2018-08-04T13:56:02.669Z,99113.69
2018-08-04T13:58:32.062Z,99113.53
2018-08-04T14:01:01.612Z,99109.92
2018-08-04T14:03:31.179Z,99100.21
2018-08-04T14:06:00.655Z,99095.66
2018-08-04T14:08:30.205Z,99092.69
2018-08-04T14:11:00.384Z,99092.98
2018-08-04T14:13:29.825Z,99093.16
2018-08-04T14:15:59.817Z,99092.41
2018-08-04T14:18:29.414Z,99088.01
2018-08-04T14:20:58.843Z,99086.32
2018-08-04T14:23:28.392Z,99093.11
2018-08-04T14:25:57.822Z,99093.37
2018-08-04T14:28:27.380Z,99084.01
2018-08-04T14:30:56.949Z,99083.45
2018-08-04T14:33:26.362Z,99085.41
2018-08-04T14:35:55.774Z,99083.28
2018-08-04T14:38:25.236Z,99086.37
2018-08-04T14:40:54.597Z,99081.67
2018-08-04T14:43:24.015Z,99074.20
2018-08-04T14:45:53.423Z,99076.08
2018-08-04T14:48:22.913Z,99071.61
2018-08-04T14:50:52.328Z,99049.45
2018-08-04T14:53:21.762Z,99071.22
2018-08-04T14:55:51.234Z,99065.94
2018-08-04T14:58:20.638Z,99068.42
2018-08-04T15:00:50.102Z,99072.22
2018-08-04T15:03:19.477Z,99076.61
2018-08-04T15:05:48.871Z,99056.11
2018-08-04T15:08:18.248Z,99071.79
2018-08-04T15:10:47.663Z,99047.44
2018-08-04T15:13:17.052Z,99070.44
2018-08-04T15:15:46.817Z,99072.80
2018-08-04T15:18:16.412Z,99075.20
2018-08-04T15:20:45.852Z,99074.30
2018-08-04T15:23:15.290Z,99081.25
2018-08-04T15:25:44.776Z,99070.32
2018-08-04T15:28:14.176Z,99062.31
2018-08-04T15:30:43.578Z,99061.80
2018-08-04T15:33:13.102Z,99058.00
2018-08-04T15:35:42.660Z,99056.25
2018-08-04T15:38:12.089Z,99058.67
2018-08-04T15:40:41.492Z,99051.58
2018-08-04T15:43:10.918Z,99056.67
2018-08-04T15:45:40.324Z,99049.66
2018-08-04T15:48:09.752Z,99050.42
2018-08-04T15:50:39.298Z,99042.86
2018-08-04T15:53:09.280Z,99049.78
2018-08-04T15:55:38.645Z,99048.27
2018-08-04T15:58:08.050Z,99042.83
2018-08-04T16:00:37.444Z,99037.83
2018-08-04T16:03:07.312Z,99036.58
2018-08-04T16:05:36.710Z,99037.55
2018-08-04T16:08:06.080Z,99034.22
2018-08-04T16:10:35.469Z,99019.95
2018-08-04T16:13:04.850Z,99044.19
2018-08-04T16:15:34.223Z,99039.98
2018-08-04T16:18:03.621Z,99046.16
2018-08-04T16:20:33.026Z,99043.03
2018-08-04T16:23:02.422Z,99043.41
2018-08-04T16:25:32.236Z,99036.91
2018-08-04T16:28:01.644Z,99037.67
2018-08-04T16:30:31.061Z,99031.08
2018-08-04T16:33:00.457Z,99028.69
2018-08-04T16:35:29.887Z,99027.85
2018-08-04T16:37:59.345Z,99033.53
2018-08-04T16:40:28.720Z,99038.65
2018-08-04T16:42:58.244Z,99043.70
2018-08-04T16:45:27.632Z,99045.27
2018-08-04T16:47:57.018Z,99043.91
2018-08-04T16:50:26.457Z,99041.42
2018-08-04T16:52:55.852Z,99050.42
2018-08-04T16:55:25.881Z,99049.70
2018-08-04T16:57:55.578Z,99045.52
2018-08-04T17:00:25.015Z,99057.14
2018-08-04T17:02:54.384Z,99056.13
2018-08-04T17:05:23.758Z,99051.53
2018-08-04T17:07:53.128Z,99049.02
2018-08-04T17:10:22.584Z,99052.25
2018-08-04T17:12:52.012Z,99047.45
2018-08-04T17:15:21.457Z,99045.98
2018-08-04T17:17:50.965Z,99048.30
2018-08-04T17:20:20.843Z,98697.16
2018-08-04T17:22:50.487Z,99039.58
2018-08-04T17:25:20.445Z,99037.39
2018-08-04T17:27:49.883Z,99039.38
2018-08-04T17:30:20.267Z,99048.39
2018-08-04T17:32:49.683Z,99041.27
2018-08-04T17:35:19.099Z,99040.02
2018-08-04T17:37:48.502Z,99039.16
2018-08-04T17:40:17.879Z,99038.80
2018-08-04T17:42:47.658Z,99033.37
2018-08-04T17:45:17.056Z,99035.53
2018-08-04T17:47:46.495Z,99039.64
2018-08-04T17:50:15.889Z,99042.84
2018-08-04T17:52:45.316Z,99045.15
2018-08-04T17:55:15.598Z,99040.53
2018-08-04T17:57:44.996Z,99043.03
2018-08-04T18:00:14.584Z,99049.38
2018-08-04T18:02:44.138Z,99051.76
2018-08-04T18:05:13.528Z,99048.16
2018-08-04T18:07:42.920Z,99055.70
2018-08-04T18:10:12.341Z,99058.61
2018-08-04T18:12:42.085Z,99063.82
2018-08-04T18:15:11.487Z,99062.42
2018-08-04T18:17:40.842Z,98848.24
2018-08-04T18:20:10.278Z,99073.77
2018-08-04T18:22:39.654Z,99079.39
2018-08-04T18:25:09.234Z,99080.20
2018-08-04T18:27:38.870Z,99080.13
2018-08-04T18:30:08.320Z,99081.36
2018-08-04T18:32:37.846Z,99080.61
2018-08-04T18:35:07.352Z,99083.89
2018-08-04T18:37:36.916Z,99078.52
2018-08-04T18:40:06.515Z,98976.97
2018-08-04T18:42:36.313Z,99091.99
2018-08-04T18:45:07.127Z,99094.87
2018-08-04T18:47:36.520Z,99096.73
2018-08-04T18:50:06.402Z,99094.91
2018-08-04T18:52:35.913Z,99102.61
2018-08-04T18:55:05.483Z,99101.19
2018-08-04T18:57:34.915Z,99101.06
2018-08-04T19:00:05.171Z,99108.26
2018-08-04T19:02:35.140Z,99107.68
2018-08-04T19:05:05.774Z,99099.47
2018-08-04T19:07:35.195Z,99099.97
2018-08-04T19:10:05.085Z,99106.71
2018-08-04T19:12:34.464Z,99101.02
2018-08-04T19:15:04.324Z,99076.33
2018-08-04T19:17:33.708Z,99104.70
2018-08-04T19:20:03.236Z,99099.16
2018-08-04T19:22:32.653Z,99095.27
2018-08-04T19:25:02.148Z,99093.52
2018-08-04T19:27:31.690Z,99100.89
2018-08-04T19:30:01.102Z,99097.00
2018-08-04T19:32:30.519Z,99099.95
2018-08-04T19:34:59.936Z,99106.81
2018-08-04T19:37:29.380Z,99107.37
2018-08-04T19:39:58.881Z,99108.45
2018-08-04T19:42:28.255Z,99108.17
2018-08-04T19:44:59.256Z,99105.77
2018-08-04T19:47:28.896Z,99103.78
2018-08-04T19:49:58.352Z,99104.86
2018-08-04T19:52:27.897Z,99109.87
2018-08-04T19:54:57.488Z,99110.80
2018-08-04T19:57:26.963Z,99111.73
2018-08-04T19:59:56.357Z,99114.88
2018-08-04T20:02:25.882Z,99114.45
2018-08-04T20:04:55.261Z,99116.55
2018-08-04T20:07:24.672Z,99115.20
2018-08-04T20:09:54.040Z,99111.34
2018-08-04T20:12:23.442Z,99102.86
2018-08-04T20:14:52.938Z,99109.98
2018-08-04T20:17:22.593Z,99109.84
2018-08-04T20:19:51.977Z,99114.66
2018-08-04T20:22:21.386Z,99112.27
2018-08-04T20:24:50.786Z,99116.00
2018-08-04T20:27:20.213Z,99119.42
2018-08-04T20:29:50.046Z,99116.33
2018-08-04T20:32:19.793Z,99122.42
2018-08-04T20:34:49.150Z,99121.75
2018-08-04T20:37:18.537Z,99124.98
2018-08-04T20:39:48.825Z,99117.07
2018-08-04T20:42:18.331Z,99118.27
2018-08-04T20:44:47.807Z,99112.89
2018-08-04T20:47:17.216Z,99106.50
2018-08-04T20:49:46.945Z,99095.28
2018-08-04T20:52:16.336Z,99101.30
2018-08-04T20:54:45.902Z,99101.47
2018-08-04T20:57:15.411Z,99101.53
2018-08-04T20:59:44.984Z,99096.14
2018-08-04T21:02:14.381Z,99097.03
2018-08-04T21:04:43.753Z,99101.77
2018-08-04T21:07:13.333Z,99093.49
2018-08-04T21:09:42.746Z,99098.46
2018-08-04T21:12:12.167Z,99097.47
2018-08-04T21:14:41.671Z,99098.61
2018-08-04T21:17:11.128Z,99095.78
2018-08-04T21:19:40.561Z,99100.69
2018-08-04T21:22:09.941Z,99102.82
2018-08-04T21:24:39.312Z,99106.35
2018-08-04T21:27:08.787Z,99106.83
2018-08-04T21:29:38.177Z,99103.47
2018-08-04T21:32:07.608Z,99104.67
2018-08-04T21:34:37.391Z,99100.48
2018-08-04T21:37:06.897Z,99020.34
2018-08-04T21:39:36.363Z,99099.66
2018-08-04T21:42:05.793Z,99100.20
2018-08-04T21:44:35.280Z,99099.86
2018-08-04T21:47:04.920Z,99098.59
2018-08-04T21:49:34.368Z,99097.89
2018-08-04T21:52:04.293Z,99095.18
2018-08-04T21:54:35.674Z,99099.88
2018-08-04T21:57:05.073Z,99093.61
2018-08-04T21:59:35.048Z,99092.79
2018-08-04T22:02:04.597Z,99092.58
2018-08-04T22:04:34.503Z,99098.59
2018-08-04T22:07:41.235Z,99096.15
2018-08-04T22:10:11.495Z,99090.91
2018-08-04T22:12:41.981Z,99092.97
2018-08-04T22:15:13.080Z,99090.26
2018-08-04T22:17:43.434Z,99094.97
2018-08-04T22:20:14.096Z,99095.34
2018-08-04T22:22:44.035Z,99097.90
2018-08-04T22:25:16.934Z,99095.38
2018-08-04T22:27:46.984Z,99096.28
2018-08-04T22:30:18.536Z,99089.86
2018-08-04T22:32:48.457Z,99092.42
2018-08-04T22:35:17.972Z,99089.40
2018-08-04T22:37:47.395Z,99083.96
2018-08-04T22:40:17.866Z,99084.45
2018-08-04T22:42:47.287Z,99086.66
2018-08-04T22:46:14.001Z,99091.41
2018-08-04T22:48:45.300Z,99085.51
2018-08-04T22:51:19.073Z,99088.03
2018-08-04T22:53:48.687Z,99088.72
2018-08-04T22:56:18.197Z,99090.71
2018-08-04T22:58:47.589Z,99084.98
2018-08-04T23:01:17.384Z,99076.56
2018-08-04T23:06:16.193Z,99067.12
2018-08-04T23:08:45.597Z,99059.02
2018-08-04T23:11:15.028Z,99060.55
2018-08-04T23:13:44.564Z,99059.03
2018-08-04T23:16:13.993Z,99063.91
2018-08-04T23:18:43.392Z,99064.42
2018-08-04T23:21:13.200Z,99067.45
2018-08-04T23:23:42.575Z,99057.00
2018-08-04T23:26:12.063Z,99061.03
2018-08-04T23:28:41.459Z,99063.24
2018-08-04T23:31:10.898Z,99056.99
2018-08-04T23:33:40.291Z,99056.31
2018-08-04T23:36:09.729Z,99049.20
2018-08-04T23:38:39.203Z,99045.63
2018-08-04T23:41:09.274Z,99045.80
2018-08-04T23:43:38.639Z,99043.11
2018-08-04T23:46:07.988Z,99044.14
2018-08-04T23:48:37.446Z,99045.16
2018-08-04T23:51:07.109Z,99055.92
2018-08-04T23:53:36.552Z,99045.30
2018-08-04T23:56:05.952Z,99050.36
2018-08-04T23:58:35.428Z,99053.05
